createdAt,value
2023-02-09T00:04:34.937Z,6.8
2023-02-09T00:09:40.995Z,6.6
2023-02-09T00:14:47.028Z,6.6
2023-02-09T00:19:53.114Z,6.6
2023-02-09T00:24:59.150Z,6.6
2023-02-09T00:30:05.186Z,6.6
2023-02-09T00:35:11.525Z,6.6
2023-02-09T00:40:17.316Z,6.6
2023-02-09T00:45:23.360Z,6.6
2023-02-09T00:50:29.417Z,6.6
2023-02-09T00:55:35.473Z,6.6
2023-02-09T01:00:41.507Z,6.6
2023-02-09T01:05:47.567Z,6.6
2023-02-09T01:10:53.615Z,6.6
2023-02-09T01:15:59.670Z,6.6
2023-02-09T01:21:05.694Z,6.6
2023-02-09T01:26:11.780Z,6.6
2023-02-09T01:31:18.047Z,6.6
2023-02-09T01:36:23.888Z,6.6
2023-02-09T01:41:29.966Z,6.6
2023-02-09T01:46:36.087Z,6.6
2023-02-09T01:51:42.044Z,6.6
2023-02-09T01:56:48.076Z,6.6
2023-02-09T02:01:54.130Z,6.6
2023-02-09T02:07:00.180Z,6.6
2023-02-09T02:12:06.246Z,6.6
2023-02-09T02:17:12.305Z,6.6
2023-02-09T02:22:18.323Z,6.6
2023-02-09T02:27:24.396Z,6.6
2023-02-09T02:32:30.443Z,6.6
2023-02-09T02:37:36.477Z,6.6
2023-02-09T02:42:42.567Z,6.6
2023-02-09T02:47:48.588Z,6.5
2023-02-09T02:52:54.655Z,6.5
2023-02-09T02:58:00.739Z,6.5
2023-02-09T03:03:06.773Z,6.5
2023-02-09T03:08:12.849Z,6.5
2023-02-09T03:13:18.939Z,6.5
2023-02-09T03:18:24.908Z,6.5
2023-02-09T03:23:30.980Z,6.5
2023-02-09T03:28:37.062Z,6.5
2023-02-09T03:33:43.095Z,6.5
2023-02-09T03:38:49.129Z,6.5
2023-02-09T03:43:55.206Z,6.4
2023-02-09T03:49:01.252Z,6.4
2023-02-09T03:54:07.284Z,6.4
2023-02-09T03:59:13.374Z,6.4
2023-02-09T04:04:19.379Z,6.4
2023-02-09T04:09:25.468Z,6.4
2023-02-09T04:14:31.693Z,6.4
2023-02-09T04:19:37.542Z,6.4
2023-02-09T04:24:43.601Z,6.4
2023-02-09T04:29:49.740Z,6.4
2023-02-09T04:34:55.709Z,6.4
2023-02-09T04:40:01.785Z,6.4
2023-02-09T04:45:07.823Z,6.4
2023-02-09T04:50:14.016Z,6.4
2023-02-09T04:55:19.939Z,6.4
2023-02-09T05:00:25.993Z,6.4
2023-02-09T05:05:32.029Z,6.4
2023-02-09T05:10:38.094Z,6.5
2023-02-09T05:15:44.173Z,6.5
2023-02-09T05:20:50.187Z,6.5
2023-02-09T05:25:56.244Z,6.6
2023-02-09T05:31:02.524Z,6.6
2023-02-09T05:36:08.361Z,6.6
2023-02-09T05:41:14.405Z,6.6
2023-02-09T05:46:20.518Z,6.6
2023-02-09T05:51:26.500Z,6.6
2023-02-09T05:56:32.557Z,6.7
2023-02-09T06:01:38.629Z,6.7
2023-02-09T06:06:44.651Z,6.7
2023-02-09T06:11:50.688Z,6.8
2023-02-09T06:16:56.777Z,6.9
2023-02-09T06:22:02.803Z,7
2023-02-09T06:27:08.865Z,7
2023-02-09T06:32:16.131Z,7.1
2023-02-09T06:37:22.093Z,7
2023-02-09T06:42:29.255Z,7
2023-02-09T06:47:35.355Z,7
2023-02-09T06:52:41.374Z,6.9
2023-02-09T06:57:47.416Z,6.9
2023-02-09T07:02:54.755Z,6.9
2023-02-09T07:08:00.644Z,6.8
2023-02-09T07:13:06.721Z,6.8
2023-02-09T07:18:12.798Z,6.8
2023-02-09T07:28:26.780Z,6.8
2023-02-09T07:33:32.809Z,6.8
2023-02-09T07:38:38.824Z,6.8
2023-02-09T07:43:44.874Z,6.8
2023-02-09T07:48:50.966Z,6.8
2023-02-09T07:53:56.977Z,6.8
2023-02-09T07:59:03.048Z,6.8
2023-02-09T08:04:09.127Z,6.8
2023-02-09T08:09:15.160Z,6.7
2023-02-09T08:14:21.186Z,6.7
2023-02-09T08:19:27.304Z,6.7
2023-02-09T08:24:33.304Z,6.7
2023-02-09T08:29:39.402Z,6.7
2023-02-09T08:34:45.637Z,6.7
2023-02-09T08:39:51.488Z,6.7
2023-02-09T08:44:57.529Z,6.7
2023-02-09T08:50:03.618Z,6.7
2023-02-09T08:55:09.664Z,6.7
2023-02-09T09:00:15.777Z,6.7
2023-02-09T09:05:21.832Z,6.8
2023-02-09T09:10:27.805Z,6.8
2023-02-09T09:15:33.897Z,6.8
2023-02-09T09:20:39.949Z,6.7
2023-02-09T09:25:46.336Z,6.7
2023-02-09T09:30:52.031Z,6.8
2023-02-09T09:35:58.566Z,6.8
2023-02-09T09:41:04.128Z,6.8
2023-02-09T09:46:10.188Z,6.8
2023-02-09T09:51:16.248Z,6.8
2023-02-09T09:56:22.315Z,6.8
2023-02-09T10:01:28.383Z,6.8
2023-02-09T10:06:34.396Z,6.8
2023-02-09T10:11:40.436Z,6.8
2023-02-09T10:16:46.553Z,6.8
2023-02-09T10:21:52.569Z,6.9
2023-02-09T10:26:58.573Z,6.9
2023-02-09T10:32:04.736Z,6.9
2023-02-09T10:37:10.730Z,6.9
2023-02-09T10:42:16.753Z,6.9
2023-02-09T10:47:22.794Z,6.9
2023-02-09T10:52:28.875Z,6.9
2023-02-09T10:57:34.890Z,6.9
2023-02-09T11:02:41.325Z,7
2023-02-09T11:07:47.075Z,6.9
2023-02-09T11:12:53.072Z,6.9
2023-02-09T11:17:59.128Z,6.9
2023-02-09T11:23:05.209Z,6.9
2023-02-09T11:28:11.366Z,6.9
2023-02-09T11:33:17.283Z,6.9
2023-02-09T11:38:23.352Z,7
2023-02-09T11:43:29.378Z,7
2023-02-09T11:48:35.425Z,7
2023-02-09T11:53:41.521Z,7
2023-02-09T11:58:47.545Z,7
2023-02-09T12:03:53.609Z,7
2023-02-09T12:08:59.666Z,7
2023-02-09T12:14:05.690Z,7.1
2023-02-09T12:19:11.759Z,7.1
2023-02-09T12:24:17.828Z,7.1
2023-02-09T12:29:23.863Z,7.1
2023-02-09T12:34:29.887Z,7.1
2023-02-09T12:39:35.981Z,7.1
2023-02-09T12:44:42.000Z,7.2
2023-02-09T12:49:48.076Z,7.2
2023-02-09T12:54:54.188Z,7.2
2023-02-09T13:00:00.206Z,7.2
2023-02-09T13:05:06.238Z,7.2
2023-02-09T13:10:12.321Z,7.2
2023-02-09T13:15:18.326Z,7.2
2023-02-09T13:20:24.413Z,7.3
2023-02-09T13:25:30.503Z,7.3
2023-02-09T13:30:36.505Z,7.3
2023-02-09T13:35:42.552Z,7.3
2023-02-09T13:40:48.624Z,7.3
2023-02-09T13:45:54.814Z,7.3
2023-02-09T13:51:00.724Z,7.4
2023-02-09T13:56:06.782Z,7.3
2023-02-09T14:01:12.930Z,7.3
2023-02-09T14:06:18.858Z,7.3
2023-02-09T14:11:36.517Z,7.3
2023-02-09T14:16:31.027Z,7.3
2023-02-09T14:21:37.035Z,7.3
2023-02-09T14:26:43.084Z,7.3
2023-02-09T14:31:49.139Z,7.3
2023-02-09T14:36:55.179Z,7.2
2023-02-09T14:42:01.234Z,7.2
2023-02-09T14:47:07.274Z,7.2
2023-02-09T14:52:14.999Z,7.2
2023-02-09T14:57:19.386Z,7.2
2023-02-09T15:02:25.469Z,7.2
2023-02-09T15:07:31.505Z,7.2
2023-02-09T15:12:37.578Z,7.1
2023-02-09T15:17:43.576Z,7.1
2023-02-09T15:22:49.658Z,7.2
2023-02-09T15:27:55.783Z,7.2
2023-02-09T15:33:01.753Z,7.2
2023-02-09T15:38:07.801Z,7.2
2023-02-09T15:43:13.862Z,7.1
2023-02-09T15:48:19.900Z,7.1
2023-02-09T15:53:25.958Z,7.1
2023-02-09T15:58:36.175Z,7.1
2023-02-09T16:03:39.180Z,7.1
2023-02-09T16:08:45.231Z,7.1
2023-02-09T16:13:51.332Z,7.1
2023-02-09T16:18:57.360Z,7
2023-02-09T16:24:03.411Z,7
2023-02-09T16:29:09.458Z,7
2023-02-09T16:34:15.700Z,7
2023-02-09T16:39:21.552Z,7
2023-02-09T16:44:27.642Z,7
2023-02-09T16:49:33.656Z,7
2023-02-09T16:54:39.697Z,7
2023-02-09T16:59:45.801Z,7
2023-02-09T17:04:51.808Z,7
2023-02-09T17:09:57.884Z,7
2023-02-09T17:15:04.027Z,7
2023-02-09T17:20:09.984Z,7
2023-02-09T17:25:16.126Z,7
2023-02-09T17:30:22.110Z,7
2023-02-09T17:35:52.968Z,7
2023-02-09T17:40:34.186Z,7
2023-02-09T17:45:40.436Z,7
2023-02-09T17:50:46.295Z,7
2023-02-09T17:55:52.348Z,7
2023-02-09T18:00:58.486Z,7
2023-02-09T18:06:04.446Z,7
2023-02-09T18:11:10.508Z,7
2023-02-09T18:16:16.585Z,7
2023-02-09T18:21:22.612Z,7
2023-02-09T18:26:28.688Z,7
2023-02-09T18:31:36.301Z,7
2023-02-09T18:36:40.746Z,7
2023-02-09T18:41:46.826Z,7
2023-02-09T18:46:52.990Z,7
2023-02-09T18:51:58.927Z,7
2023-02-09T18:57:04.982Z,7
2023-02-09T19:02:11.042Z,7
2023-02-09T19:07:17.084Z,7
2023-02-09T19:12:23.120Z,7
2023-02-09T19:17:29.208Z,7
2023-02-09T19:22:35.244Z,7
2023-02-09T19:27:41.310Z,7
2023-02-09T19:32:47.379Z,6.9
2023-02-09T19:37:53.383Z,7
2023-02-09T19:42:59.450Z,6.9
2023-02-09T19:48:05.529Z,6.9
2023-02-09T19:53:11.564Z,6.9
2023-02-09T19:58:17.601Z,6.9
2023-02-09T20:03:23.765Z,6.9
2023-02-09T20:08:29.700Z,6.9
2023-02-09T20:13:35.762Z,6.9
2023-02-09T20:18:41.921Z,6.9
2023-02-09T20:23:47.892Z,6.9
2023-02-09T20:28:53.942Z,6.9
2023-02-09T20:33:59.984Z,6.9
2023-02-09T20:39:06.043Z,6.9
2023-02-09T20:44:12.099Z,6.9
2023-02-09T20:49:18.184Z,6.9
2023-02-09T20:54:24.196Z,6.9
2023-02-09T20:59:30.229Z,6.9
2023-02-09T21:04:36.329Z,6.9
2023-02-09T21:09:42.349Z,6.9
2023-02-09T21:14:48.398Z,6.8
2023-02-09T21:19:54.474Z,6.8
2023-02-09T21:25:00.501Z,6.8
2023-02-09T21:30:06.576Z,6.8
2023-02-09T21:35:12.644Z,6.8
2023-02-09T21:40:18.687Z,6.8
2023-02-09T21:45:24.722Z,6.8
2023-02-09T21:50:30.784Z,6.8
2023-02-09T21:55:36.834Z,6.8
2023-02-09T22:00:42.884Z,6.8
2023-02-09T22:05:48.956Z,6.8
2023-02-09T22:10:55.003Z,6.8
2023-02-09T22:16:01.025Z,6.8
2023-02-09T22:21:07.107Z,6.8
2023-02-09T22:26:13.135Z,6.8
2023-02-09T22:31:19.323Z,6.8
2023-02-09T22:36:25.280Z,6.8
2023-02-09T22:41:31.277Z,6.8
2023-02-09T22:46:37.352Z,6.8
2023-02-09T22:51:43.428Z,6.8
2023-02-09T22:56:49.481Z,6.8
2023-02-09T23:01:55.511Z,6.8
2023-02-09T23:07:01.607Z,6.8
2023-02-09T23:12:07.644Z,6.8
2023-02-09T23:17:13.674Z,6.8
2023-02-09T23:22:19.773Z,6.8
2023-02-09T23:27:25.790Z,6.8
2023-02-09T23:32:31.828Z,6.8
2023-02-09T23:37:38.443Z,6.8
2023-02-09T23:42:43.936Z,6.8
2023-02-09T23:47:49.997Z,6.8
2023-02-09T23:52:56.058Z,6.8
2023-02-09T23:58:02.116Z,6.8
